createdAt,value
2023-03-16T00:00:21.679Z,2.00
2023-03-16T00:03:19.465Z,1.50
2023-03-16T00:05:53.377Z,1.90
2023-03-16T00:08:23.011Z,2.10
2023-03-16T00:10:54.300Z,2.00
2023-03-16T00:13:24.927Z,3.00
2023-03-16T00:16:02.914Z,3.50
2023-03-16T00:18:31.429Z,1.40
2023-03-16T00:21:05.337Z,2.50
2023-03-16T00:23:38.593Z,1.40
2023-03-16T00:26:08.884Z,2.50
2023-03-16T00:28:38.044Z,1.80
2023-03-16T00:31:08.975Z,1.50
2023-03-16T00:33:37.328Z,1.40
2023-03-16T00:36:09.452Z,1.50
2023-03-16T00:38:40.354Z,2.10
2023-03-16T00:41:09.234Z,1.40
2023-03-16T00:43:45.424Z,1.60
2023-03-16T00:46:16.212Z,1.40
2023-03-16T00:48:47.287Z,1.30
2023-03-16T00:51:18.746Z,2.10
2023-03-16T00:53:47.537Z,1.40
2023-03-16T00:56:16.851Z,2.40
2023-03-16T00:58:45.570Z,1.50
2023-03-16T01:01:19.039Z,1.40
2023-03-16T01:03:47.221Z,1.50
2023-03-16T01:06:17.614Z,1.40
2023-03-16T01:08:45.615Z,1.30
2023-03-16T01:11:18.638Z,1.70
2023-03-16T01:13:47.395Z,1.40
2023-03-16T01:16:19.024Z,1.80
2023-03-16T01:18:50.322Z,1.60
2023-03-16T01:21:19.022Z,1.60
2023-03-16T01:23:48.485Z,1.50
2023-03-16T01:26:18.168Z,1.50
2023-03-16T01:28:48.131Z,1.40
2023-03-16T01:31:16.867Z,1.50
2023-03-16T01:33:45.031Z,1.70
2023-03-16T01:36:18.390Z,1.70
2023-03-16T01:39:16.249Z,1.50
2023-03-16T01:41:47.709Z,1.50
2023-03-16T01:44:20.252Z,1.60
2023-03-16T01:46:50.719Z,1.60
2023-03-16T01:49:23.888Z,1.70
2023-03-16T01:51:59.963Z,1.50
2023-03-16T01:54:50.119Z,1.50
2023-03-16T01:57:24.247Z,1.40
2023-03-16T01:59:58.054Z,1.50
2023-03-16T02:02:31.079Z,1.40
2023-03-16T02:05:08.547Z,1.70
2023-03-16T02:07:43.155Z,1.90
2023-03-16T02:10:13.148Z,1.70
2023-03-16T02:12:41.415Z,1.50
2023-03-16T02:15:11.437Z,1.30
2023-03-16T02:17:41.790Z,1.40
2023-03-16T02:20:13.703Z,1.60
2023-03-16T02:22:47.882Z,1.70
2023-03-16T02:25:18.732Z,1.40
2023-03-16T02:27:58.499Z,1.30
2023-03-16T02:30:27.713Z,1.40
2023-03-16T02:33:05.256Z,1.40
2023-03-16T02:35:33.855Z,1.50
2023-03-16T02:38:02.154Z,1.30
2023-03-16T02:40:35.252Z,1.40
2023-03-16T02:43:20.706Z,1.60
2023-03-16T02:46:06.305Z,1.30
2023-03-16T02:48:49.487Z,1.50
2023-03-16T02:51:17.546Z,1.40
2023-03-16T02:53:45.638Z,1.40
2023-03-16T02:56:13.828Z,2.30
2023-03-16T02:58:41.777Z,1.20
2023-03-16T03:01:13.303Z,1.00
2023-03-16T03:03:43.848Z,1.50
2023-03-16T03:06:11.850Z,1.30
2023-03-16T03:08:40.187Z,1.40
2023-03-16T03:11:09.095Z,1.30
2023-03-16T03:13:44.646Z,1.50
2023-03-16T03:16:15.693Z,1.40
2023-03-16T03:18:44.046Z,1.50
2023-03-16T03:21:12.268Z,1.40
2023-03-16T03:23:41.415Z,1.40
2023-03-16T03:26:09.484Z,1.30
2023-03-16T03:28:37.473Z,1.20
2023-03-16T03:31:05.659Z,1.40
2023-03-16T03:33:36.471Z,1.30
2023-03-16T03:36:05.007Z,1.30
2023-03-16T03:38:36.182Z,1.40
2023-03-16T03:41:07.191Z,2.10
2023-03-16T03:43:35.928Z,1.40
2023-03-16T03:46:04.577Z,1.40
2023-03-16T03:48:34.949Z,1.60
2023-03-16T03:51:02.961Z,1.30
2023-03-16T03:53:45.556Z,1.60
2023-03-16T03:56:13.740Z,1.50
2023-03-16T03:58:42.408Z,2.20
2023-03-16T04:01:10.821Z,1.70
2023-03-16T04:03:38.848Z,1.40
2023-03-16T04:06:08.269Z,1.50
2023-03-16T04:08:36.984Z,1.40
2023-03-16T04:11:05.663Z,1.50
2023-03-16T04:13:33.770Z,1.50
2023-03-16T04:16:05.107Z,1.40
2023-03-16T04:18:42.910Z,1.50
2023-03-16T04:21:16.643Z,1.50
2023-03-16T04:23:45.635Z,1.40
2023-03-16T04:26:13.946Z,1.50
2023-03-16T04:28:43.912Z,1.30
2023-03-16T04:31:14.367Z,1.40
2023-03-16T04:33:44.932Z,1.50
2023-03-16T04:36:13.404Z,1.60
2023-03-16T04:38:42.146Z,1.50
2023-03-16T04:41:11.523Z,1.50
2023-03-16T04:43:45.004Z,1.40
2023-03-16T04:46:21.435Z,1.70
2023-03-16T04:48:49.591Z,1.60
2023-03-16T04:51:17.665Z,1.40
2023-03-16T04:53:58.298Z,3.10
2023-03-16T04:56:31.724Z,1.70
2023-03-16T04:59:02.173Z,2.10
2023-03-16T05:01:33.014Z,1.40
2023-03-16T05:04:02.579Z,1.40
2023-03-16T05:06:31.890Z,1.70
2023-03-16T05:09:01.090Z,1.50
2023-03-16T05:11:29.904Z,1.60
2023-03-16T05:13:59.741Z,1.50
2023-03-16T05:16:29.489Z,2.20
2023-03-16T05:19:01.783Z,1.90
2023-03-16T05:21:32.250Z,2.60
2023-03-16T05:24:05.477Z,3.50
2023-03-16T05:26:34.040Z,3.40
2023-03-16T05:29:05.137Z,2.30
2023-03-16T05:31:34.189Z,2.10
2023-03-16T05:34:03.944Z,3.60
2023-03-16T05:36:34.629Z,1.90
2023-03-16T05:39:08.513Z,1.80
2023-03-16T05:41:40.473Z,2.30
2023-03-16T05:44:15.673Z,1.80
2023-03-16T05:47:04.473Z,3.90
2023-03-16T05:49:33.389Z,2.10
2023-03-16T05:52:04.311Z,4.30
2023-03-16T05:54:35.900Z,2.40
2023-03-16T05:57:06.909Z,2.70
2023-03-16T05:59:35.817Z,2.70
2023-03-16T06:02:10.960Z,2.00
2023-03-16T06:04:39.289Z,1.70
2023-03-16T06:07:08.772Z,5.00
2023-03-16T06:09:36.835Z,2.60
2023-03-16T06:12:09.861Z,2.70
2023-03-16T06:14:38.120Z,3.10
2023-03-16T06:17:06.322Z,4.10
2023-03-16T06:19:35.009Z,6.90
2023-03-16T06:22:03.108Z,2.60
2023-03-16T06:24:31.364Z,2.50
2023-03-16T06:26:59.885Z,2.50
2023-03-16T06:29:34.398Z,2.60
2023-03-16T06:32:02.813Z,3.80
2023-03-16T06:34:30.938Z,8.60
2023-03-16T06:36:59.400Z,7.40
2023-03-16T06:39:28.021Z,7.90
2023-03-16T06:41:56.770Z,18.00
2023-03-16T06:44:25.133Z,11.90
2023-03-16T06:47:04.409Z,3.70
2023-03-16T06:49:33.376Z,5.20
2023-03-16T06:52:03.371Z,4.50
2023-03-16T06:54:34.267Z,4.70
2023-03-16T06:57:02.569Z,3.40
2023-03-16T06:59:30.735Z,3.80
2023-03-16T07:01:59.525Z,5.10
2023-03-16T07:04:27.808Z,3.50
2023-03-16T07:06:56.104Z,3.60
2023-03-16T07:09:24.179Z,3.30
2023-03-16T07:11:53.287Z,4.20
2023-03-16T07:14:23.403Z,6.40
2023-03-16T07:16:53.056Z,4.40
2023-03-16T07:19:22.832Z,4.00
2023-03-16T07:21:51.780Z,6.10
2023-03-16T07:24:21.253Z,5.30
2023-03-16T07:26:49.432Z,4.20
2023-03-16T07:29:24.866Z,3.00
2023-03-16T07:31:55.429Z,4.30
2023-03-16T07:34:27.499Z,3.60
2023-03-16T07:36:58.210Z,3.60
2023-03-16T07:39:28.701Z,6.60
2023-03-16T07:42:02.698Z,7.80
2023-03-16T07:44:52.162Z,4.10
2023-03-16T07:47:21.194Z,3.50
2023-03-16T07:50:13.543Z,7.20
2023-03-16T07:52:44.234Z,5.20
2023-03-16T07:55:19.157Z,4.70
2023-03-16T07:57:48.844Z,3.20
2023-03-16T08:00:24.597Z,4.30
2023-03-16T08:02:56.332Z,3.70
2023-03-16T08:05:27.682Z,3.30
2023-03-16T08:08:03.059Z,4.20
2023-03-16T08:10:33.994Z,4.10
2023-03-16T08:13:10.961Z,8.60
2023-03-16T08:15:42.851Z,5.80
2023-03-16T08:18:17.743Z,8.60
2023-03-16T08:20:46.862Z,3.40
2023-03-16T08:23:15.927Z,3.20
2023-03-16T08:25:44.164Z,3.90
2023-03-16T08:28:16.153Z,5.10
2023-03-16T08:30:51.219Z,8.00
2023-03-16T08:33:33.429Z,3.80
2023-03-16T08:36:02.426Z,7.90
2023-03-16T08:38:30.787Z,3.00
2023-03-16T08:41:02.172Z,3.10
2023-03-16T08:43:37.348Z,4.70
2023-03-16T08:46:06.900Z,8.00
2023-03-16T08:48:48.644Z,5.70
2023-03-16T08:51:17.766Z,4.20
2023-03-16T08:53:48.203Z,8.20
2023-03-16T08:56:17.825Z,3.60
2023-03-16T08:58:46.311Z,2.90
2023-03-16T09:01:21.554Z,5.80
2023-03-16T09:06:22.757Z,2.50
2023-03-16T09:08:51.533Z,3.30
2023-03-16T09:11:21.603Z,6.70
2023-03-16T09:13:51.906Z,3.30
2023-03-16T09:16:25.868Z,7.50
2023-03-16T09:18:54.398Z,6.50
2023-03-16T09:21:23.608Z,3.00
2023-03-16T09:23:51.722Z,2.50
2023-03-16T09:26:20.929Z,3.40
2023-03-16T09:28:49.427Z,4.10
2023-03-16T09:31:20.405Z,4.40
2023-03-16T09:33:48.660Z,3.10
2023-03-16T09:36:17.698Z,3.50
2023-03-16T09:38:46.290Z,2.70
2023-03-16T09:41:36.154Z,2.50
2023-03-16T09:44:46.717Z,2.80
2023-03-16T09:47:18.804Z,4.30
2023-03-16T09:49:52.311Z,2.60
2023-03-16T09:52:50.554Z,5.50
2023-03-16T09:55:31.433Z,6.30
2023-03-16T09:58:02.073Z,5.20
2023-03-16T10:00:45.948Z,3.20
2023-03-16T10:03:43.272Z,5.30
2023-03-16T10:06:17.171Z,5.00
2023-03-16T10:08:57.291Z,3.20
2023-03-16T10:11:37.713Z,4.10
2023-03-16T10:14:09.586Z,4.40
2023-03-16T10:16:52.829Z,14.80
2023-03-16T10:19:42.342Z,3.30
2023-03-16T10:22:27.261Z,3.50
2023-03-16T10:25:23.890Z,4.10
2023-03-16T10:27:53.258Z,4.80
2023-03-16T10:30:32.623Z,4.30
2023-03-16T10:33:03.746Z,5.90
2023-03-16T10:35:42.199Z,3.70
2023-03-16T10:38:43.219Z,3.60
2023-03-16T10:41:18.205Z,4.60
2023-03-16T10:43:57.634Z,7.10
2023-03-16T10:46:28.317Z,7.40
2023-03-16T10:49:07.666Z,4.90
2023-03-16T10:51:38.302Z,10.90
2023-03-16T10:54:30.836Z,4.00
2023-03-16T10:57:51.505Z,8.00
2023-03-16T11:00:36.211Z,8.00
2023-03-16T11:03:31.776Z,8.20
2023-03-16T11:06:03.667Z,6.30
2023-03-16T11:08:35.738Z,7.10
2023-03-16T11:11:14.843Z,9.00
2023-03-16T11:14:21.700Z,7.60
2023-03-16T11:20:30.098Z,6.50
2023-03-16T11:23:03.122Z,9.30
2023-03-16T11:25:47.212Z,8.20
2023-03-16T11:28:48.872Z,7.60
2023-03-16T11:31:33.589Z,10.10
2023-03-16T11:34:10.026Z,11.00
2023-03-16T11:36:41.847Z,9.40
2023-03-16T11:39:33.468Z,5.10
2023-03-16T11:42:07.896Z,8.30
2023-03-16T11:45:21.697Z,13.70
2023-03-16T11:47:57.360Z,8.10
2023-03-16T11:50:26.569Z,8.20
2023-03-16T11:53:15.651Z,7.20
2023-03-16T11:56:24.041Z,7.10
2023-03-16T11:58:58.123Z,9.60
2023-03-16T12:02:11.766Z,6.80
2023-03-16T12:05:19.860Z,9.70
2023-03-16T12:08:17.757Z,7.30
2023-03-16T12:11:01.550Z,7.00
2023-03-16T12:13:55.178Z,7.80
2023-03-16T12:17:02.496Z,6.40
2023-03-16T12:19:49.254Z,7.20
2023-03-16T12:22:23.758Z,12.50
2023-03-16T12:24:53.425Z,6.50
2023-03-16T12:27:35.301Z,6.50
2023-03-16T12:30:28.035Z,7.40
2023-03-16T12:33:18.728Z,7.00
2023-03-16T12:36:02.741Z,8.80
2023-03-16T12:38:50.344Z,8.80
2023-03-16T12:41:27.233Z,6.70
2023-03-16T12:44:28.327Z,6.50
2023-03-16T12:47:21.264Z,6.90
2023-03-16T12:49:52.070Z,6.90
2023-03-16T12:52:24.397Z,7.00
2023-03-16T12:55:08.228Z,8.50
2023-03-16T12:57:38.183Z,5.60
2023-03-16T13:00:10.088Z,9.50
2023-03-16T13:02:51.119Z,6.30
2023-03-16T13:05:31.486Z,7.90
2023-03-16T13:08:09.317Z,7.60
2023-03-16T13:10:39.429Z,8.20
2023-03-16T13:13:16.646Z,7.90
2023-03-16T13:15:49.195Z,5.90
2023-03-16T13:18:22.424Z,6.20
2023-03-16T13:20:55.092Z,6.60
2023-03-16T13:23:29.127Z,6.50
2023-03-16T13:26:03.415Z,6.80
2023-03-16T13:28:41.745Z,10.90
2023-03-16T13:31:43.606Z,11.30
2023-03-16T13:34:24.574Z,6.90
2023-03-16T13:36:59.020Z,7.60
2023-03-16T13:39:30.350Z,8.00
2023-03-16T13:42:02.596Z,10.00
2023-03-16T13:44:34.809Z,9.80
2023-03-16T13:47:05.291Z,5.50
2023-03-16T13:49:36.129Z,8.30
2023-03-16T13:52:06.021Z,6.70
2023-03-16T13:54:37.597Z,13.30
2023-03-16T13:57:14.648Z,8.00
2023-03-16T13:59:46.188Z,10.10
2023-03-16T14:02:23.389Z,7.30
2023-03-16T14:04:52.101Z,8.80
2023-03-16T14:07:26.487Z,10.70
2023-03-16T14:09:59.141Z,8.50
2023-03-16T14:12:28.345Z,14.80
2023-03-16T14:14:57.274Z,9.90
2023-03-16T14:17:28.408Z,7.70
2023-03-16T14:19:59.696Z,8.30
2023-03-16T14:22:38.449Z,13.10
2023-03-16T14:25:07.247Z,11.90
2023-03-16T14:27:46.803Z,9.20
2023-03-16T14:30:19.605Z,9.90
2023-03-16T14:33:06.776Z,8.40
2023-03-16T14:35:44.327Z,11.90
2023-03-16T14:38:21.490Z,10.10
2023-03-16T14:41:12.657Z,14.40
2023-03-16T14:43:51.693Z,8.80
2023-03-16T14:46:31.269Z,10.90
2023-03-16T14:49:22.351Z,12.10
2023-03-16T14:51:54.134Z,8.20
2023-03-16T14:54:27.634Z,10.70
2023-03-16T14:57:01.801Z,13.80
2023-03-16T14:59:30.180Z,12.20
2023-03-16T15:02:00.196Z,12.60
2023-03-16T15:04:32.328Z,11.10
2023-03-16T15:07:07.954Z,8.10
2023-03-16T15:09:43.929Z,11.70
2023-03-16T15:12:20.435Z,9.80
2023-03-16T15:15:06.983Z,13.90
2023-03-16T15:17:35.309Z,10.60
2023-03-16T15:20:05.331Z,9.20
2023-03-16T15:22:38.197Z,10.40
2023-03-16T15:25:36.561Z,10.90
2023-03-16T15:28:25.662Z,12.60
2023-03-16T15:30:59.437Z,10.70
2023-03-16T15:33:28.460Z,10.80
2023-03-16T15:36:00.596Z,13.30
2023-03-16T15:38:36.721Z,11.10
2023-03-16T15:41:11.153Z,9.90
2023-03-16T15:43:40.367Z,11.40
2023-03-16T15:46:10.540Z,10.80
2023-03-16T15:48:40.981Z,10.10
2023-03-16T15:51:21.725Z,12.90
2023-03-16T15:54:06.250Z,10.40
2023-03-16T15:56:52.831Z,10.40
2023-03-16T15:59:23.696Z,9.20
2023-03-16T16:01:52.898Z,13.10
2023-03-16T16:04:23.544Z,9.10
2023-03-16T16:06:55.413Z,10.10
2023-03-16T16:09:24.650Z,11.40
2023-03-16T16:11:52.949Z,10.20
2023-03-16T16:14:25.689Z,9.20
2023-03-16T16:16:55.235Z,9.50
2023-03-16T16:19:23.456Z,8.90
2023-03-16T16:21:52.124Z,12.10
2023-03-16T16:24:20.174Z,10.00
2023-03-16T16:26:55.403Z,10.10
2023-03-16T16:29:32.341Z,10.60
2023-03-16T16:32:00.922Z,13.20
2023-03-16T16:34:28.953Z,10.00
2023-03-16T16:36:57.948Z,10.50
2023-03-16T16:39:27.492Z,10.90
2023-03-16T16:41:57.170Z,10.20
2023-03-16T16:44:33.865Z,11.40
2023-03-16T16:47:04.066Z,11.70
2023-03-16T16:49:35.344Z,10.90
2023-03-16T16:52:04.218Z,11.80
2023-03-16T16:54:32.514Z,11.70
2023-03-16T16:57:01.680Z,13.30
2023-03-16T16:59:33.145Z,11.20
2023-03-16T17:02:05.617Z,10.60
2023-03-16T17:04:35.918Z,11.20
2023-03-16T17:07:06.620Z,12.60
2023-03-16T17:09:34.766Z,11.30
2023-03-16T17:12:02.937Z,9.60
2023-03-16T17:14:34.108Z,10.60
2023-03-16T17:17:07.269Z,16.40
2023-03-16T17:19:37.056Z,12.10
2023-03-16T17:22:25.876Z,12.20
2023-03-16T17:24:56.335Z,11.50
2023-03-16T17:27:29.213Z,10.30
2023-03-16T17:29:58.628Z,12.70
2023-03-16T17:32:27.357Z,10.00
2023-03-16T17:34:55.782Z,11.50
2023-03-16T17:37:24.801Z,12.40
2023-03-16T17:39:57.707Z,11.20
2023-03-16T17:42:26.654Z,14.00
2023-03-16T17:44:54.857Z,14.90
2023-03-16T17:47:25.607Z,12.80
2023-03-16T17:49:55.121Z,10.90
2023-03-16T17:52:25.976Z,11.80
2023-03-16T17:54:54.851Z,14.30
2023-03-16T17:57:30.520Z,11.40
2023-03-16T18:00:01.585Z,12.00
2023-03-16T18:02:43.960Z,12.70
2023-03-16T18:05:34.711Z,13.50
2023-03-16T18:08:38.833Z,16.90
2023-03-16T18:11:12.615Z,14.70
2023-03-16T18:13:41.683Z,16.30
2023-03-16T18:16:18.872Z,12.00
2023-03-16T18:18:47.998Z,13.00
2023-03-16T18:21:19.978Z,13.90
2023-03-16T18:23:48.644Z,16.00
2023-03-16T18:26:18.211Z,11.40
2023-03-16T18:28:46.860Z,14.90
2023-03-16T18:31:28.253Z,15.90
2023-03-16T18:34:03.523Z,14.40
2023-03-16T18:36:36.557Z,13.20
2023-03-16T18:39:07.472Z,15.00
2023-03-16T18:41:36.115Z,13.50
2023-03-16T18:44:24.048Z,15.50
2023-03-16T18:46:57.726Z,14.50
2023-03-16T18:49:31.943Z,13.20
2023-03-16T18:52:01.030Z,15.60
2023-03-16T18:54:35.537Z,14.20
2023-03-16T18:57:10.552Z,14.70
2023-03-16T18:59:38.749Z,14.80
2023-03-16T19:02:35.280Z,14.40
2023-03-16T19:05:25.382Z,14.40
2023-03-16T19:07:53.535Z,15.20
2023-03-16T19:10:32.447Z,19.10
2023-03-16T19:13:00.527Z,14.40
2023-03-16T19:15:32.179Z,15.10
2023-03-16T19:18:00.751Z,11.30
2023-03-16T19:20:32.175Z,13.90
2023-03-16T19:23:27.198Z,14.10
2023-03-16T19:25:56.197Z,16.30
2023-03-16T19:28:39.730Z,13.70
2023-03-16T19:31:29.363Z,12.80
2023-03-16T19:33:58.593Z,14.30
2023-03-16T19:36:31.259Z,15.80
2023-03-16T19:39:00.019Z,14.10
2023-03-16T19:41:34.621Z,12.00
2023-03-16T19:44:14.258Z,13.80
2023-03-16T19:46:43.212Z,14.70
2023-03-16T19:49:22.942Z,13.90
2023-03-16T19:51:53.521Z,13.30
2023-03-16T19:54:33.637Z,14.50
2023-03-16T19:57:07.579Z,12.90
2023-03-16T19:59:36.060Z,11.80
2023-03-16T20:02:37.943Z,11.80
2023-03-16T20:05:07.757Z,14.40
2023-03-16T20:07:38.395Z,14.10
2023-03-16T20:10:08.301Z,14.20
2023-03-16T20:12:39.028Z,15.70
2023-03-16T20:15:15.634Z,15.10
2023-03-16T20:17:44.868Z,16.20
2023-03-16T20:20:23.193Z,15.10
2023-03-16T20:22:55.313Z,13.10
2023-03-16T20:25:24.934Z,13.50
2023-03-16T20:28:01.317Z,13.20
2023-03-16T20:30:31.054Z,14.00
2023-03-16T20:32:59.205Z,12.70
2023-03-16T20:35:32.505Z,11.50
2023-03-16T20:38:01.799Z,15.30
2023-03-16T20:40:30.220Z,14.00
2023-03-16T20:43:01.054Z,15.40
2023-03-16T20:45:30.693Z,10.90
2023-03-16T20:47:59.041Z,13.40
2023-03-16T20:50:30.004Z,12.70
2023-03-16T20:52:58.168Z,14.10
2023-03-16T20:55:29.417Z,15.00
2023-03-16T20:57:57.649Z,12.20
2023-03-16T21:00:37.907Z,13.00
2023-03-16T21:03:17.576Z,17.40
2023-03-16T21:05:46.413Z,14.70
2023-03-16T21:08:15.919Z,13.20
2023-03-16T21:10:46.289Z,12.70
2023-03-16T21:13:21.681Z,13.00
2023-03-16T21:18:21.629Z,12.80
2023-03-16T21:20:50.832Z,13.00
2023-03-16T21:23:22.138Z,15.50
2023-03-16T21:25:57.832Z,14.40
2023-03-16T21:28:29.019Z,12.30
2023-03-16T21:30:58.928Z,12.50
2023-03-16T21:33:39.046Z,14.20
2023-03-16T21:36:14.705Z,14.20
2023-03-16T21:38:44.625Z,13.40
2023-03-16T21:41:14.085Z,11.40
2023-03-16T21:43:43.281Z,11.30
2023-03-16T21:46:18.446Z,11.60
2023-03-16T21:48:49.722Z,15.80
2023-03-16T21:51:20.183Z,14.60
2023-03-16T21:53:49.740Z,13.90
2023-03-16T21:56:22.622Z,12.00
2023-03-16T21:58:52.549Z,13.20
2023-03-16T22:01:29.777Z,9.50
2023-03-16T22:04:17.566Z,12.40
2023-03-16T22:06:46.065Z,12.80
2023-03-16T22:09:19.501Z,10.10
2023-03-16T22:11:47.741Z,12.00
2023-03-16T22:14:16.843Z,12.50
2023-03-16T22:16:45.088Z,14.80
2023-03-16T22:19:18.250Z,11.30
2023-03-16T22:21:47.316Z,14.50
2023-03-16T22:24:18.321Z,12.60
2023-03-16T22:26:48.810Z,12.50
2023-03-16T22:29:28.508Z,10.80
2023-03-16T22:32:03.152Z,12.30
2023-03-16T22:34:38.627Z,12.50
2023-03-16T22:37:06.901Z,13.50
2023-03-16T22:39:38.423Z,14.40
2023-03-16T22:42:26.076Z,13.00
2023-03-16T22:44:55.855Z,14.90
2023-03-16T22:47:26.535Z,16.90
2023-03-16T22:49:55.409Z,13.50
2023-03-16T22:52:30.834Z,13.90
2023-03-16T22:55:01.897Z,16.80
2023-03-16T22:57:31.472Z,15.20
2023-03-16T23:00:07.646Z,15.50
2023-03-16T23:02:36.147Z,16.80
2023-03-16T23:05:21.143Z,17.30
2023-03-16T23:07:49.221Z,17.50
2023-03-16T23:10:19.259Z,11.90
2023-03-16T23:12:49.424Z,15.00
2023-03-16T23:15:26.714Z,15.50
2023-03-16T23:17:56.415Z,14.10
2023-03-16T23:20:31.689Z,15.10
2023-03-16T23:22:59.843Z,12.80
2023-03-16T23:25:27.804Z,15.40
2023-03-16T23:27:57.196Z,12.60
2023-03-16T23:30:25.888Z,14.20
2023-03-16T23:32:55.516Z,11.30
2023-03-16T23:35:32.527Z,16.40
2023-03-16T23:38:00.743Z,13.80
2023-03-16T23:40:30.105Z,12.90
2023-03-16T23:43:00.805Z,15.60
2023-03-16T23:45:42.049Z,14.70
2023-03-16T23:48:19.669Z,13.80
2023-03-16T23:50:50.914Z,13.90
2023-03-16T23:53:19.998Z,13.60
2023-03-16T23:55:48.255Z,14.20
2023-03-16T23:58:16.578Z,13.20
